createdAt,value
2022-09-17T04:24:36.155Z,1.00
2022-09-17T04:27:03.584Z,1.00
2022-09-17T04:29:31.153Z,1.00
2022-09-17T04:31:58.347Z,1.00
2022-09-17T04:34:27.760Z,1.00
2022-09-17T04:36:54.688Z,7.20
2022-09-17T04:39:21.580Z,20.90
2022-09-17T04:41:48.375Z,1.00
2022-09-17T04:44:15.368Z,1.00
2022-09-17T04:46:42.309Z,7.10
2022-09-17T04:49:13.545Z,1.00
2022-09-17T04:51:42.214Z,1.00
2022-09-17T04:54:10.147Z,1.00
2022-09-17T04:56:37.607Z,1.00
2022-09-17T05:02:16.365Z,1.00
2022-09-17T05:04:48.160Z,1.00
2022-09-17T05:07:36.205Z,1.00
2022-09-17T05:10:22.049Z,4.70
2022-09-17T05:13:04.327Z,99.90
2022-09-17T05:15:31.218Z,99.90
2022-09-17T05:17:58.747Z,99.90
2022-09-17T05:20:41.008Z,99.90
2022-09-17T05:29:48.837Z,99.90
2022-09-17T05:37:50.517Z,99.90
2022-09-17T05:40:24.948Z,99.90
2022-09-17T05:42:58.020Z,99.90
2022-09-17T05:45:24.974Z,99.90
2022-09-17T05:47:55.845Z,99.90
2022-09-17T05:50:26.223Z,99.90
2022-09-17T05:52:53.583Z,99.90
2022-09-17T05:55:22.281Z,99.90
2022-09-17T05:57:49.718Z,99.90
2022-09-17T06:00:17.133Z,99.90
2022-09-17T06:02:54.884Z,99.90
2022-09-17T06:11:39.703Z,99.90
2022-09-17T06:16:52.192Z,99.90
2022-09-17T06:19:25.994Z,99.90
2022-09-17T06:21:52.989Z,99.90
2022-09-17T06:24:19.825Z,99.90
2022-09-17T06:26:46.623Z,99.90
2022-09-17T06:32:41.826Z,99.90
2022-09-17T06:44:37.374Z,99.90
2022-09-17T06:47:04.349Z,99.90
2022-09-17T06:49:31.471Z,99.90
2022-09-17T07:01:47.660Z,99.90
2022-09-17T07:04:35.582Z,99.90
2022-09-17T07:07:05.654Z,99.90
2022-09-17T07:09:32.591Z,99.90
2022-09-17T07:12:00.084Z,99.90
2022-09-17T07:14:26.995Z,99.90
2022-09-17T07:16:54.063Z,99.90
2022-09-17T07:19:21.015Z,99.90
2022-09-17T07:24:32.999Z,99.90
2022-09-17T07:27:00.492Z,99.90
2022-09-17T07:29:27.640Z,99.90
2022-09-17T07:31:55.287Z,99.90
2022-09-17T07:34:22.336Z,99.90
2022-09-17T07:36:49.145Z,99.90
2022-09-17T07:39:16.950Z,99.90
2022-09-17T07:41:43.885Z,99.90
2022-09-17T07:44:10.885Z,99.90
2022-09-17T07:46:37.950Z,99.90
2022-09-17T07:49:06.569Z,99.90
2022-09-17T07:51:40.506Z,99.90
2022-09-17T07:54:08.289Z,99.90
2022-09-17T07:56:35.921Z,99.90
2022-09-17T07:59:04.161Z,99.90
2022-09-17T08:01:34.881Z,99.90
2022-09-17T08:04:02.248Z,99.90
2022-09-17T08:06:41.561Z,99.90
2022-09-17T08:09:10.911Z,99.90
2022-09-17T08:11:55.727Z,95.20
2022-09-17T08:17:08.706Z,76.60
2022-09-17T08:19:36.867Z,2.30
2022-09-17T08:22:09.073Z,65.60
2022-09-17T08:24:39.582Z,6.00
2022-09-17T08:27:07.350Z,1.00
2022-09-17T08:29:35.341Z,1.00
2022-09-17T08:32:02.870Z,1.00
2022-09-17T08:34:30.484Z,1.00
2022-09-17T08:37:00.381Z,1.00
2022-09-17T08:39:30.102Z,1.00
2022-09-17T08:44:43.598Z,1.00
2022-09-17T08:51:07.938Z,1.00
2022-09-17T08:58:01.280Z,1.00
2022-09-17T09:06:10.631Z,1.00
2022-09-17T09:09:06.660Z,1.00
2022-09-17T09:11:34.709Z,1.00
2022-09-17T09:14:06.939Z,1.00
2022-09-17T09:16:43.213Z,1.00
2022-09-17T09:19:23.784Z,1.00
2022-09-17T09:21:53.739Z,1.00
2022-09-17T09:27:38.262Z,1.00
2022-09-17T09:30:09.266Z,1.00
2022-09-17T09:32:59.821Z,1.00
2022-09-17T10:18:35.195Z,1.00
2022-09-17T10:23:53.881Z,1.00
2022-09-17T10:29:16.935Z,1.00
2022-09-17T10:37:58.542Z,1.00
2022-09-17T10:40:27.830Z,1.00
2022-09-17T10:43:28.148Z,1.00
2022-09-17T10:45:59.310Z,1.00
2022-09-17T10:48:30.434Z,1.00
2022-09-17T10:50:57.732Z,1.00
2022-09-17T10:53:29.099Z,1.00
2022-09-17T10:56:09.784Z,1.00
2022-09-17T10:58:45.704Z,1.00
2022-09-17T11:04:14.706Z,1.00
2022-09-17T11:06:48.901Z,1.00
2022-09-17T11:09:27.152Z,1.00
2022-09-17T11:12:08.294Z,1.00
2022-09-17T11:15:10.618Z,1.00
2022-09-17T11:17:47.839Z,1.00
2022-09-17T11:20:24.461Z,1.00
2022-09-17T11:23:21.551Z,1.00
2022-09-17T11:26:04.037Z,1.00
2022-09-17T11:28:52.635Z,1.00
2022-09-17T11:31:27.917Z,1.00
2022-09-17T11:34:15.783Z,1.00
2022-09-17T11:36:43.142Z,1.00
2022-09-17T11:39:17.639Z,1.00
2022-09-17T11:41:46.836Z,1.00
2022-09-17T11:44:26.270Z,1.00
2022-09-17T11:46:56.260Z,1.00
2022-09-17T11:49:29.774Z,1.00
2022-09-17T11:52:02.710Z,1.00
2022-09-17T11:54:53.990Z,1.00
2022-09-17T11:57:41.318Z,1.00
2022-09-17T12:07:22.578Z,1.00
2022-09-17T12:09:55.393Z,1.00
2022-09-17T12:12:47.850Z,1.00
2022-09-17T12:15:24.183Z,1.00
2022-09-17T12:18:30.724Z,1.00
2022-09-17T12:20:55.732Z,99.90
2022-09-17T12:23:30.236Z,99.90
2022-09-17T12:26:04.117Z,99.90
2022-09-17T12:28:34.663Z,99.90
2022-09-17T12:31:12.545Z,99.90
2022-09-17T12:33:51.849Z,99.90
2022-09-17T12:36:22.536Z,99.90
2022-09-17T12:38:52.655Z,99.90
2022-09-17T12:41:27.099Z,99.90
2022-09-17T12:44:13.208Z,99.90
2022-09-17T12:47:11.169Z,99.90
2022-09-17T12:50:10.270Z,99.90
2022-09-17T12:52:48.691Z,99.90
2022-09-17T12:55:18.865Z,99.90
2022-09-17T12:57:51.778Z,99.90
2022-09-17T13:00:19.536Z,99.90
2022-09-17T13:03:06.461Z,99.90
2022-09-17T13:05:44.583Z,99.90
2022-09-17T13:08:20.599Z,99.90
2022-09-17T13:10:59.566Z,99.90
2022-09-17T13:13:45.170Z,99.90
2022-09-17T13:25:19.529Z,99.90
2022-09-17T13:28:18.389Z,99.90
2022-09-17T13:30:55.299Z,99.90
2022-09-17T13:45:46.473Z,99.90
2022-09-17T13:49:04.402Z,99.90
2022-09-17T13:55:07.992Z,99.90
2022-09-17T13:58:22.826Z,99.90
2022-09-17T14:04:32.139Z,99.90
2022-09-17T14:07:26.697Z,99.90
2022-09-17T14:16:18.679Z,99.90
2022-09-17T14:50:21.368Z,99.90
2022-09-17T14:53:17.900Z,99.90
2022-09-17T14:56:13.162Z,99.90
2022-09-17T15:11:28.360Z,99.90
2022-09-17T15:24:48.238Z,99.90
2022-09-17T15:27:43.929Z,99.90
2022-09-17T15:41:08.528Z,99.90
2022-09-17T16:06:14.276Z,99.90
2022-09-17T16:41:14.495Z,99.90
2022-09-17T16:58:44.673Z,99.90
2022-09-17T17:14:38.451Z,99.90
2022-09-17T17:31:07.997Z,99.90
2022-09-17T17:50:25.590Z,1.00
2022-09-17T17:53:10.296Z,1.00
2022-09-17T17:55:37.771Z,1.00
2022-09-17T18:01:53.079Z,1.00
2022-09-17T18:11:26.915Z,1.00
2022-09-17T18:46:35.506Z,1.00
2022-09-17T18:59:29.220Z,1.00
2022-09-17T19:02:49.312Z,1.00
2022-09-17T19:09:44.710Z,1.00
2022-09-17T19:12:35.539Z,1.00
2022-09-17T19:31:15.953Z,1.00
2022-09-17T19:36:50.376Z,1.00
2022-09-17T19:40:06.131Z,1.00
2022-09-17T19:43:19.128Z,1.00
2022-09-17T19:52:35.396Z,1.00
2022-09-17T20:20:26.235Z,1.00
2022-09-17T20:23:31.342Z,1.00
2022-09-17T20:29:38.358Z,1.00
2022-09-17T20:39:22.681Z,1.00
2022-09-17T21:10:16.559Z,1.00
2022-09-17T21:12:54.058Z,1.00
2022-09-17T21:15:29.096Z,1.00
2022-09-17T21:18:17.855Z,1.00
2022-09-17T21:26:40.952Z,1.00
2022-09-17T21:44:07.322Z,1.00
2022-09-17T21:46:38.579Z,9.40
2022-09-17T21:54:42.458Z,4.70
2022-09-17T22:00:10.300Z,1.00
2022-09-17T22:02:45.779Z,1.00
2022-09-17T22:05:22.099Z,1.00
2022-09-17T22:07:52.053Z,1.00
2022-09-17T22:10:24.937Z,1.00
2022-09-17T22:19:15.534Z,1.00
2022-09-17T22:21:48.953Z,1.00
2022-09-17T22:24:23.043Z,1.00
2022-09-17T22:26:57.758Z,1.00
2022-09-17T22:29:30.542Z,1.00
2022-09-17T22:32:01.866Z,1.00
2022-09-17T22:34:33.139Z,1.00
2022-09-17T22:37:15.706Z,1.00
2022-09-17T22:39:51.561Z,1.00
2022-09-17T22:45:16.171Z,1.00
2022-09-17T22:47:59.035Z,1.00
2022-09-17T22:50:28.846Z,1.00
2022-09-17T22:55:58.497Z,1.00
2022-09-17T22:58:27.480Z,1.00
2022-09-17T23:00:57.208Z,1.00
2022-09-17T23:03:29.272Z,1.00
2022-09-17T23:06:04.861Z,1.00
2022-09-17T23:08:50.377Z,1.00
2022-09-17T23:11:19.733Z,1.00
2022-09-17T23:16:47.977Z,1.00
2022-09-17T23:19:42.976Z,1.00
2022-09-17T23:25:23.531Z,1.00
2022-09-17T23:28:36.336Z,1.00
2022-09-17T23:35:06.869Z,1.00
2022-09-17T23:37:43.126Z,1.00
2022-09-17T23:40:12.928Z,1.00
2022-09-17T23:42:41.302Z,1.00
2022-09-17T23:45:27.086Z,1.00
2022-09-17T23:47:54.848Z,1.00
2022-09-17T23:50:32.929Z,1.00
2022-09-17T23:53:21.308Z,1.00
